createdAt,value
2018-02-21T00:01:36.654Z,85.97
2018-02-21T00:04:06.095Z,78.35
2018-02-21T00:06:34.394Z,77.92
2018-02-21T00:09:02.661Z,70.70
2018-02-21T00:11:30.924Z,76.53
2018-02-21T00:13:59.203Z,68.18
2018-02-21T00:16:26.698Z,78.27
2018-02-21T00:18:54.990Z,80.26
2018-02-21T00:21:23.245Z,79.78
2018-02-21T00:23:51.522Z,80.42
2018-02-21T00:26:19.797Z,83.83
2018-02-21T00:28:48.057Z,75.67
2018-02-21T00:31:16.352Z,82.75
2018-02-21T00:33:44.642Z,82.60
2018-02-21T00:36:12.907Z,82.13
2018-02-21T00:38:41.178Z,74.08
2018-02-21T00:41:09.446Z,86.73
2018-02-21T00:43:36.958Z,73.83
2018-02-21T00:46:05.627Z,82.28
2018-02-21T00:48:33.914Z,83.20
2018-02-21T00:51:02.175Z,88.87
2018-02-21T00:53:30.474Z,81.68
2018-02-21T00:55:58.735Z,72.60
2018-02-21T00:58:26.997Z,86.67
2018-02-21T01:00:55.270Z,84.07
2018-02-21T01:03:23.524Z,75.40
2018-02-21T01:05:51.803Z,83.45
2018-02-21T01:08:20.054Z,81.57
2018-02-21T01:10:48.325Z,81.10
2018-02-21T01:13:16.582Z,84.22
2018-02-21T01:15:44.858Z,79.72
2018-02-21T01:18:13.123Z,86.32
2018-02-21T01:20:41.393Z,85.28
2018-02-21T01:23:09.655Z,81.80
2018-02-21T01:25:37.950Z,75.48
2018-02-21T01:28:06.742Z,77.17
2018-02-21T01:30:35.838Z,76.63
2018-02-21T01:33:05.821Z,88.30
2018-02-21T01:35:35.790Z,77.07
2018-02-21T01:38:05.272Z,77.17
2018-02-21T01:40:33.565Z,83.88
2018-02-21T01:43:01.826Z,79.82
2018-02-21T01:45:30.088Z,77.98
2018-02-21T01:47:58.365Z,82.74
2018-02-21T01:50:41.582Z,78.62
2018-02-21T01:53:09.845Z,85.38
2018-02-21T01:55:38.178Z,72.42
2018-02-21T01:58:06.430Z,96.12
2018-02-21T02:00:35.678Z,90.70
2018-02-21T02:03:03.952Z,80.40
2018-02-21T02:05:32.205Z,79.40
2018-02-21T02:08:00.500Z,79.68
2018-02-21T02:10:28.764Z,89.07
2018-02-21T02:12:57.057Z,86.63
2018-02-21T02:15:25.324Z,82.85
2018-02-21T02:17:53.589Z,91.40
2018-02-21T02:20:21.871Z,80.68
2018-02-21T02:22:50.161Z,90.47
2018-02-21T02:25:18.454Z,78.45
2018-02-21T02:27:46.715Z,101.42
2018-02-21T02:30:15.007Z,97.85
2018-02-21T02:32:43.264Z,93.38
2018-02-21T02:35:11.574Z,81.28
2018-02-21T02:37:39.836Z,88.53
2018-02-21T02:40:08.086Z,86.98
2018-02-21T02:42:37.182Z,84.97
2018-02-21T02:45:05.806Z,90.57
2018-02-21T02:47:35.362Z,91.17
2018-02-21T02:50:03.617Z,98.57
2018-02-21T02:52:31.876Z,89.82
2018-02-21T02:55:00.180Z,89.45
2018-02-21T02:57:27.677Z,96.18
2018-02-21T02:59:55.936Z,86.35
2018-02-21T03:02:24.230Z,92.77
2018-02-21T03:04:52.550Z,101.18
2018-02-21T03:07:20.847Z,95.00
2018-02-21T03:09:49.135Z,102.17
2018-02-21T03:12:17.398Z,84.48
2018-02-21T03:14:45.700Z,93.83
2018-02-21T03:17:13.973Z,90.18
2018-02-21T03:19:42.256Z,84.97
2018-02-21T03:22:10.554Z,106.20
2018-02-21T03:24:38.818Z,88.92
2018-02-21T03:27:07.119Z,94.42
2018-02-21T03:29:35.396Z,103.05
2018-02-21T03:32:03.703Z,103.60
2018-02-21T03:34:31.967Z,80.88
2018-02-21T03:37:00.273Z,95.25
2018-02-21T03:39:28.552Z,104.63
2018-02-21T03:41:57.236Z,112.37
2018-02-21T03:44:25.626Z,105.35
2018-02-21T03:46:53.908Z,95.35
2018-02-21T03:49:22.168Z,94.00
2018-02-21T03:51:50.464Z,91.52
2018-02-21T03:54:18.765Z,101.48
2018-02-21T03:56:46.273Z,106.22
2018-02-21T03:59:14.576Z,116.85
2018-02-21T04:01:42.869Z,94.30
2018-02-21T04:04:11.185Z,94.30
2018-02-21T04:06:39.508Z,92.20
2018-02-21T04:09:07.785Z,104.95
2018-02-21T04:11:37.091Z,90.10
2018-02-21T04:14:05.359Z,104.17
2018-02-21T04:16:33.669Z,100.98
2018-02-21T04:19:01.958Z,91.30
2018-02-21T04:21:30.223Z,98.55
2018-02-21T04:23:58.526Z,88.37
2018-02-21T04:26:26.791Z,105.73
2018-02-21T04:28:55.089Z,88.27
2018-02-21T04:31:23.386Z,87.95
2018-02-21T04:33:51.690Z,104.90
2018-02-21T04:36:20.006Z,100.03
2018-02-21T04:38:48.315Z,105.17
2018-02-21T04:41:16.581Z,86.87
2018-02-21T04:43:44.851Z,107.52
2018-02-21T04:46:13.167Z,101.77
2018-02-21T04:48:41.434Z,89.67
2018-02-21T04:51:09.746Z,94.67
2018-02-21T04:53:38.023Z,95.40
2018-02-21T04:56:12.508Z,96.75
2018-02-21T04:58:56.435Z,91.25
2018-02-21T05:01:24.739Z,82.97
2018-02-21T05:03:53.017Z,96.32
2018-02-21T05:06:21.289Z,98.07
2018-02-21T05:08:49.599Z,99.17
2018-02-21T05:11:17.880Z,103.30
2018-02-21T05:13:46.201Z,102.43
2018-02-21T05:16:13.707Z,91.23
2018-02-21T05:18:41.975Z,98.72
2018-02-21T05:21:10.285Z,96.93
2018-02-21T05:23:38.561Z,93.48
2018-02-21T05:26:06.859Z,81.15
2018-02-21T05:28:36.031Z,111.32
2018-02-21T05:31:04.336Z,90.97
2018-02-21T05:33:32.626Z,107.00
2018-02-21T05:36:00.952Z,105.62
2018-02-21T05:38:29.251Z,92.40
2018-02-21T05:40:57.546Z,104.55
2018-02-21T05:43:25.866Z,104.00
2018-02-21T05:45:54.149Z,100.68
2018-02-21T05:48:22.441Z,100.00
2018-02-21T05:50:50.741Z,102.02
2018-02-21T05:53:19.020Z,97.97
2018-02-21T05:55:47.332Z,95.25
2018-02-21T05:58:15.613Z,110.07
2018-02-21T06:00:44.240Z,106.02
2018-02-21T06:03:12.508Z,105.47
2018-02-21T06:05:40.816Z,104.93
2018-02-21T06:08:09.087Z,94.70
2018-02-21T06:10:36.600Z,101.50
2018-02-21T06:13:05.925Z,107.40
2018-02-21T06:15:34.875Z,104.90
2018-02-21T06:18:03.179Z,103.05
2018-02-21T06:20:31.456Z,101.13
2018-02-21T06:22:59.772Z,103.62
2018-02-21T06:25:28.040Z,105.03
2018-02-21T06:27:56.319Z,109.35
2018-02-21T06:30:24.646Z,109.13
2018-02-21T06:32:52.915Z,120.88
2018-02-21T06:35:21.190Z,109.58
2018-02-21T06:37:49.505Z,116.03
2018-02-21T06:40:17.805Z,104.08
2018-02-21T06:42:46.075Z,101.03
2018-02-21T06:45:14.376Z,104.52
2018-02-21T06:47:42.640Z,99.05
2018-02-21T06:50:10.940Z,99.35
2018-02-21T06:52:39.208Z,98.28
2018-02-21T06:55:06.753Z,92.00
2018-02-21T06:57:35.856Z,89.10
2018-02-21T07:00:04.965Z,102.17
2018-02-21T07:02:35.870Z,105.30
2018-02-21T07:05:04.870Z,111.00
2018-02-21T07:07:33.184Z,102.52
2018-02-21T07:10:01.463Z,98.88
2018-02-21T07:12:29.768Z,88.43
2018-02-21T07:14:58.090Z,104.05
2018-02-21T07:17:26.364Z,103.08
2018-02-21T07:19:54.660Z,96.47
2018-02-21T07:22:22.986Z,107.42
2018-02-21T07:24:53.166Z,92.47
2018-02-21T07:27:21.457Z,95.92
2018-02-21T07:29:49.769Z,101.38
2018-02-21T07:32:18.043Z,94.15
2018-02-21T07:34:46.414Z,96.63
2018-02-21T07:37:14.698Z,101.07
2018-02-21T07:39:43.008Z,88.63
2018-02-21T07:42:11.280Z,84.58
2018-02-21T07:44:39.602Z,99.32
2018-02-21T07:47:07.885Z,97.50
2018-02-21T07:49:37.509Z,102.32
2018-02-21T07:52:06.672Z,113.18
2018-02-21T07:54:35.728Z,98.13
2018-02-21T07:57:04.015Z,93.83
2018-02-21T07:59:32.324Z,108.32
2018-02-21T08:02:00.587Z,95.17
2018-02-21T08:04:30.885Z,102.38
2018-02-21T08:06:59.155Z,105.90
2018-02-21T08:09:27.447Z,119.95
2018-02-21T08:11:55.751Z,102.32
2018-02-21T08:14:24.053Z,98.77
2018-02-21T08:16:52.438Z,89.88
2018-02-21T08:19:20.757Z,109.10
2018-02-21T08:21:49.078Z,93.08
2018-02-21T08:24:17.356Z,94.00
2018-02-21T08:26:45.669Z,100.62
2018-02-21T08:29:13.942Z,100.72
2018-02-21T08:31:42.240Z,90.60
2018-02-21T08:34:10.544Z,81.90
2018-02-21T08:36:38.891Z,78.08
2018-02-21T08:39:07.123Z,103.50
2018-02-21T08:41:35.442Z,92.18
2018-02-21T08:44:03.725Z,96.98
2018-02-21T08:46:32.000Z,80.33
2018-02-21T08:49:00.305Z,98.85
2018-02-21T08:51:28.570Z,100.25
2018-02-21T08:53:56.867Z,90.03
2018-02-21T08:56:25.140Z,91.83
2018-02-21T08:58:53.422Z,84.55
2018-02-21T09:01:21.729Z,93.87
2018-02-21T09:03:50.024Z,91.43
2018-02-21T09:06:18.461Z,89.28
2018-02-21T09:08:46.741Z,92.03
2018-02-21T09:11:15.050Z,96.40
2018-02-21T09:13:43.330Z,102.92
2018-02-21T09:16:11.631Z,99.53
2018-02-21T09:18:39.913Z,89.45
2018-02-21T09:21:08.193Z,97.55
2018-02-21T09:23:36.493Z,91.20
2018-02-21T09:26:05.112Z,84.52
2018-02-21T09:28:33.400Z,89.67
2018-02-21T09:31:01.713Z,84.40
2018-02-21T09:33:29.985Z,86.07
2018-02-21T09:35:58.303Z,80.72
2018-02-21T09:38:26.577Z,89.32
2018-02-21T09:40:54.855Z,84.42
2018-02-21T09:43:23.144Z,74.93
2018-02-21T09:45:51.429Z,80.00
2018-02-21T09:48:19.759Z,84.15
2018-02-21T09:50:48.073Z,81.08
2018-02-21T09:53:16.376Z,83.48
2018-02-21T09:55:44.648Z,77.08
2018-02-21T09:58:12.977Z,84.67
2018-02-21T10:00:41.243Z,88.28
2018-02-21T10:03:09.537Z,101.17
2018-02-21T10:05:37.832Z,88.08
2018-02-21T10:08:06.924Z,72.10
2018-02-21T10:10:36.077Z,71.10
2018-02-21T10:13:04.398Z,80.12
2018-02-21T10:15:32.715Z,72.17
2018-02-21T10:18:00.991Z,63.92
2018-02-21T10:20:29.272Z,65.77
2018-02-21T10:22:56.803Z,68.75
2018-02-21T10:25:25.075Z,61.62
2018-02-21T10:27:53.372Z,63.10
2018-02-21T10:30:21.683Z,76.08
2018-02-21T10:32:49.978Z,65.04
2018-02-21T10:35:18.256Z,71.54
2018-02-21T10:37:46.555Z,58.86
2018-02-21T10:40:14.823Z,67.74
2018-02-21T10:42:43.132Z,72.18
2018-02-21T10:45:11.434Z,63.47
2018-02-21T10:47:39.712Z,64.47
2018-02-21T10:50:08.022Z,61.95
2018-02-21T10:52:42.105Z,58.58
2018-02-21T10:55:10.400Z,58.60
2018-02-21T10:57:38.667Z,63.12
2018-02-21T11:00:06.979Z,56.14
2018-02-21T11:02:35.260Z,56.58
2018-02-21T11:05:03.537Z,52.36
2018-02-21T11:07:31.831Z,43.02
2018-02-21T11:10:00.106Z,44.04
2018-02-21T11:12:28.416Z,43.08
2018-02-21T11:14:56.718Z,45.02
2018-02-21T11:17:25.012Z,48.70
2018-02-21T11:19:53.308Z,41.74
2018-02-21T11:22:21.596Z,41.08
2018-02-21T11:24:49.864Z,41.08
2018-02-21T11:27:18.167Z,36.04
2018-02-21T11:29:46.437Z,51.86
2018-02-21T11:32:14.703Z,42.90
2018-02-21T11:34:42.996Z,41.50
2018-02-21T11:37:11.256Z,45.94
2018-02-21T11:39:39.530Z,48.34
2018-02-21T11:42:07.814Z,45.16
2018-02-21T11:44:37.381Z,40.78
2018-02-21T11:47:06.480Z,44.44
2018-02-21T11:49:35.697Z,46.80
2018-02-21T11:52:03.955Z,39.26
2018-02-21T11:54:32.247Z,40.62
2018-02-21T11:57:00.517Z,44.36
2018-02-21T11:59:28.808Z,40.40
2018-02-21T12:01:57.063Z,39.66
2018-02-21T12:04:25.370Z,37.58
2018-02-21T12:06:53.674Z,41.76
2018-02-21T12:09:22.026Z,42.84
2018-02-21T12:11:50.243Z,40.48
2018-02-21T12:14:18.540Z,43.04
2018-02-21T12:16:46.799Z,39.34
2018-02-21T12:19:15.094Z,36.72
2018-02-21T12:21:43.359Z,41.32
2018-02-21T12:24:11.646Z,45.84
2018-02-21T12:26:39.957Z,42.56
2018-02-21T12:29:08.225Z,43.04
2018-02-21T12:31:36.495Z,37.16
2018-02-21T12:34:05.457Z,40.80
2018-02-21T12:36:33.725Z,38.08
2018-02-21T12:39:16.905Z,38.88
2018-02-21T12:41:45.218Z,39.34
2018-02-21T12:44:13.496Z,38.62
2018-02-21T12:46:41.773Z,36.94
2018-02-21T12:49:10.068Z,37.30
2018-02-21T12:51:38.335Z,37.68
2018-02-21T12:54:06.595Z,42.94
2018-02-21T12:56:36.189Z,43.52
2018-02-21T12:59:04.483Z,37.78
2018-02-21T13:01:32.771Z,42.08
2018-02-21T13:04:01.056Z,46.96
2018-02-21T13:06:29.328Z,35.54
2018-02-21T13:08:57.623Z,45.70
2018-02-21T13:11:25.883Z,38.10
2018-02-21T13:13:54.219Z,37.30
2018-02-21T13:16:22.485Z,40.32
2018-02-21T13:18:50.758Z,39.30
2018-02-21T13:21:19.118Z,44.64
2018-02-21T13:23:47.376Z,34.26
2018-02-21T13:26:15.651Z,44.16
2018-02-21T13:28:43.960Z,41.44
2018-02-21T13:31:12.249Z,35.60
2018-02-21T13:33:40.520Z,33.66
2018-02-21T13:36:08.834Z,33.18
2018-02-21T13:38:37.099Z,35.32
2018-02-21T13:41:05.373Z,36.14
2018-02-21T13:43:33.662Z,37.70
2018-02-21T13:46:01.165Z,43.50
2018-02-21T13:48:29.480Z,44.20
2018-02-21T13:50:57.748Z,37.42
2018-02-21T13:53:26.007Z,40.34
2018-02-21T13:55:54.296Z,41.64
2018-02-21T13:58:22.567Z,38.04
2018-02-21T14:00:50.869Z,37.14
2018-02-21T14:03:19.173Z,38.78
2018-02-21T14:05:47.467Z,30.12
2018-02-21T14:08:15.728Z,39.30
2018-02-21T14:10:44.019Z,35.54
2018-02-21T14:13:12.316Z,35.54
2018-02-21T14:15:40.611Z,39.98
2018-02-21T14:18:08.867Z,33.36
2018-02-21T14:20:37.169Z,32.42
2018-02-21T14:23:06.220Z,34.62
2018-02-21T14:25:35.477Z,32.52
2018-02-21T14:28:03.748Z,31.74
2018-02-21T14:30:32.021Z,37.42
2018-02-21T14:33:00.332Z,42.58
2018-02-21T14:35:28.602Z,35.48
2018-02-21T14:37:57.415Z,39.56
2018-02-21T14:40:25.692Z,36.84
2018-02-21T14:42:53.998Z,27.70
2018-02-21T14:45:21.515Z,44.60
2018-02-21T14:47:49.785Z,35.10
2018-02-21T14:50:18.072Z,34.62
2018-02-21T14:52:46.347Z,34.04
2018-02-21T14:55:14.640Z,36.04
2018-02-21T14:57:42.906Z,36.30
2018-02-21T15:00:11.213Z,34.62
2018-02-21T15:02:39.504Z,36.06
2018-02-21T15:05:07.808Z,46.82
2018-02-21T15:07:37.388Z,37.72
2018-02-21T15:10:06.501Z,42.72
2018-02-21T15:12:35.919Z,37.86
2018-02-21T15:15:04.848Z,49.60
2018-02-21T15:17:33.150Z,41.76
2018-02-21T15:20:01.449Z,42.54
2018-02-21T15:22:29.744Z,38.00
2018-02-21T15:24:58.026Z,36.70
2018-02-21T15:27:26.326Z,40.20
2018-02-21T15:29:54.598Z,34.44
2018-02-21T15:32:23.862Z,36.86
2018-02-21T15:34:52.160Z,40.30
2018-02-21T15:37:20.428Z,35.86
2018-02-21T15:39:48.741Z,35.30
2018-02-21T15:42:18.072Z,36.68
2018-02-21T15:44:46.364Z,46.04
2018-02-21T15:47:14.627Z,39.54
2018-02-21T15:49:42.929Z,36.58
2018-02-21T15:52:11.202Z,43.32
2018-02-21T15:54:39.512Z,38.18
2018-02-21T15:57:07.800Z,41.90
2018-02-21T15:59:37.231Z,45.48
2018-02-21T16:02:06.511Z,34.56
2018-02-21T16:04:38.094Z,35.24
2018-02-21T16:07:06.938Z,39.74
2018-02-21T16:09:36.009Z,42.72
2018-02-21T16:12:04.961Z,41.58
2018-02-21T16:14:33.304Z,45.06
2018-02-21T16:17:01.601Z,37.32
2018-02-21T16:19:29.881Z,46.58
2018-02-21T16:21:58.185Z,36.84
2018-02-21T16:24:27.369Z,40.84
2018-02-21T16:26:55.673Z,42.06
2018-02-21T16:29:23.962Z,41.92
2018-02-21T16:31:52.270Z,38.10
2018-02-21T16:34:20.569Z,44.00
2018-02-21T16:36:48.845Z,44.54
2018-02-21T16:39:17.158Z,47.54
2018-02-21T16:41:45.482Z,47.56
2018-02-21T16:44:13.755Z,38.56
2018-02-21T16:46:42.024Z,49.42
2018-02-21T16:49:10.324Z,42.30
2018-02-21T16:51:38.589Z,40.58
2018-02-21T16:54:12.455Z,38.86
2018-02-21T16:56:40.726Z,45.70
2018-02-21T16:59:09.001Z,42.20
2018-02-21T17:01:37.312Z,42.16
2018-02-21T17:04:06.598Z,46.08
2018-02-21T17:06:36.256Z,43.98
2018-02-21T17:09:05.357Z,37.60
2018-02-21T17:11:33.636Z,41.52
2018-02-21T17:14:01.930Z,45.96
2018-02-21T17:16:30.207Z,48.40
2018-02-21T17:18:58.525Z,43.82
2018-02-21T17:21:30.035Z,39.26
2018-02-21T17:23:57.568Z,50.36
2018-02-21T17:26:33.731Z,40.58
2018-02-21T17:29:02.033Z,49.94
2018-02-21T17:31:31.251Z,46.62
2018-02-21T17:33:59.554Z,38.24
2018-02-21T17:36:29.853Z,42.80
2018-02-21T17:38:58.111Z,43.82
2018-02-21T17:41:40.770Z,47.74
2018-02-21T17:44:09.045Z,49.12
2018-02-21T17:46:37.346Z,41.12
2018-02-21T17:49:06.586Z,45.40
2018-02-21T17:51:35.507Z,48.68
2018-02-21T17:54:09.209Z,41.76
2018-02-21T17:56:36.738Z,40.08
2018-02-21T17:59:05.700Z,46.92
2018-02-21T18:01:33.992Z,40.58
2018-02-21T18:04:03.217Z,43.48
2018-02-21T18:06:31.520Z,45.20
2018-02-21T18:09:00.765Z,43.08
2018-02-21T18:11:29.023Z,51.08
2018-02-21T18:14:00.630Z,46.02
2018-02-21T18:16:28.923Z,42.04
2018-02-21T18:19:03.353Z,44.06
2018-02-21T18:21:37.253Z,40.98
2018-02-21T18:24:07.462Z,44.80
2018-02-21T18:26:36.787Z,51.44
2018-02-21T18:29:08.825Z,40.04
2018-02-21T18:31:37.100Z,45.56
2018-02-21T18:34:05.733Z,40.00
2018-02-21T18:36:34.053Z,47.50
2018-02-21T18:39:03.296Z,44.60
2018-02-21T18:41:31.566Z,39.78
2018-02-21T18:44:05.919Z,43.70
2018-02-21T18:46:35.400Z,39.98
2018-02-21T18:49:03.699Z,40.56
2018-02-21T18:51:31.976Z,42.24
2018-02-21T18:54:01.275Z,37.64
2018-02-21T18:56:29.543Z,40.58
2018-02-21T18:58:59.848Z,40.00
2018-02-21T19:01:28.115Z,48.96
2018-02-21T19:03:55.625Z,39.00
2018-02-21T19:06:23.924Z,43.74
2018-02-21T19:08:54.196Z,43.92
2018-02-21T19:11:22.505Z,47.26
2018-02-21T19:13:50.810Z,46.58
2018-02-21T19:16:19.076Z,41.64
2018-02-21T19:18:47.377Z,40.70
2018-02-21T19:21:15.689Z,48.33
2018-02-21T19:23:44.923Z,43.15
2018-02-21T19:26:13.231Z,53.90
2018-02-21T19:28:41.499Z,45.10
2018-02-21T19:31:09.769Z,42.94
2018-02-21T19:33:38.093Z,40.26
2018-02-21T19:36:07.015Z,40.32
2018-02-21T19:38:36.191Z,44.58
2018-02-21T19:41:04.911Z,42.50
2018-02-21T19:43:38.993Z,45.54
2018-02-21T19:46:07.301Z,40.48
2018-02-21T19:48:37.398Z,44.86
2018-02-21T19:51:06.411Z,45.06
2018-02-21T19:53:35.281Z,37.82
2018-02-21T19:56:03.562Z,45.58
2018-02-21T19:58:32.823Z,38.72
2018-02-21T20:01:01.123Z,41.68
2018-02-21T20:03:29.421Z,42.70
2018-02-21T20:05:57.733Z,43.12
2018-02-21T20:08:31.849Z,38.04
2018-02-21T20:11:00.148Z,45.66
2018-02-21T20:13:28.430Z,41.10
2018-02-21T20:15:56.736Z,38.94
2018-02-21T20:18:26.005Z,44.18
2018-02-21T20:20:54.280Z,47.98
2018-02-21T20:23:22.590Z,43.95
2018-02-21T20:25:50.900Z,40.67
2018-02-21T20:28:19.189Z,41.03
2018-02-21T20:30:47.505Z,46.37
2018-02-21T20:33:15.776Z,42.47
2018-02-21T20:35:44.097Z,49.07
2018-02-21T20:38:12.412Z,45.32
2018-02-21T20:40:40.694Z,42.67
2018-02-21T20:43:08.955Z,38.74
2018-02-21T20:45:37.246Z,42.02
2018-02-21T20:48:05.532Z,35.10
2018-02-21T20:50:33.804Z,36.67
2018-02-21T20:53:02.104Z,50.02
2018-02-21T20:55:30.429Z,40.50
2018-02-21T20:57:58.705Z,39.32
2018-02-21T21:00:26.999Z,47.08
2018-02-21T21:02:55.273Z,42.98
2018-02-21T21:05:23.590Z,43.02
2018-02-21T21:07:51.856Z,42.55
2018-02-21T21:10:20.156Z,51.20
2018-02-21T21:12:48.431Z,42.42
2018-02-21T21:15:16.743Z,48.22
2018-02-21T21:17:45.003Z,53.10
2018-02-21T21:20:13.267Z,42.03
2018-02-21T21:22:41.559Z,47.60
2018-02-21T21:25:09.851Z,50.48
2018-02-21T21:27:38.119Z,50.72
2018-02-21T21:30:06.769Z,43.72
2018-02-21T21:32:36.116Z,47.20
2018-02-21T21:35:04.427Z,45.93
2018-02-21T21:37:32.725Z,45.10
2018-02-21T21:40:01.002Z,54.55
2018-02-21T21:42:29.295Z,53.33
2018-02-21T21:44:57.569Z,45.75
2018-02-21T21:47:25.888Z,46.65
2018-02-21T21:49:54.167Z,46.58
2018-02-21T21:52:22.431Z,42.38
2018-02-21T21:54:50.737Z,45.83
2018-02-21T21:57:18.256Z,51.85
2018-02-21T21:59:46.560Z,54.78
2018-02-21T22:02:14.837Z,56.70
2018-02-21T22:04:42.385Z,50.35
2018-02-21T22:07:10.704Z,50.62
2018-02-21T22:09:39.017Z,42.97
2018-02-21T22:12:06.564Z,50.73
2018-02-21T22:14:36.240Z,48.03
2018-02-21T22:17:05.246Z,47.28
2018-02-21T22:19:33.518Z,42.27
2018-02-21T22:22:01.836Z,40.28
2018-02-21T22:24:30.151Z,43.48
2018-02-21T22:26:58.560Z,47.07
2018-02-21T22:29:26.879Z,45.92
2018-02-21T22:31:55.161Z,43.45
2018-02-21T22:34:23.427Z,45.60
2018-02-21T22:36:51.747Z,42.77
2018-02-21T22:39:20.022Z,44.20
2018-02-21T22:41:48.327Z,37.32
2018-02-21T22:44:16.608Z,47.70
2018-02-21T22:46:44.159Z,38.80
2018-02-21T22:49:12.424Z,44.53
2018-02-21T22:51:40.727Z,38.73
2018-02-21T22:54:08.293Z,45.20
2018-02-21T22:56:36.575Z,40.48
2018-02-21T22:59:05.704Z,42.74
2018-02-21T23:01:34.017Z,40.90
2018-02-21T23:04:02.376Z,40.33
2018-02-21T23:06:30.673Z,43.97
2018-02-21T23:08:58.939Z,44.40
2018-02-21T23:11:26.476Z,39.65
2018-02-21T23:13:54.751Z,36.73
2018-02-21T23:16:22.298Z,38.96
2018-02-21T23:18:50.608Z,36.88
2018-02-21T23:21:18.888Z,38.62
2018-02-21T23:23:47.156Z,40.25
2018-02-21T23:26:15.453Z,43.47
2018-02-21T23:28:43.720Z,37.92
2018-02-21T23:31:12.020Z,40.50
2018-02-21T23:33:40.314Z,41.28
2018-02-21T23:36:08.588Z,41.08
2018-02-21T23:38:36.887Z,40.98
2018-02-21T23:41:05.716Z,41.07
2018-02-21T23:43:34.011Z,39.60
2018-02-21T23:46:02.279Z,35.75
2018-02-21T23:48:30.585Z,33.98
2018-02-21T23:50:58.866Z,38.02
2018-02-21T23:53:27.170Z,34.38
2018-02-21T23:55:55.453Z,34.75
2018-02-21T23:58:23.755Z,40.92
